Wilkesboro, NC

11:43 PM EST on November 26, 2014 (GMT -0500)
Millers Creek | Change Station
CLOSE
Current Station
Personal Weather Station
Location: Millers Creek, NC
Elevation: 1424 ft
Nearby Weather Stations

Elev 1424 ft 36.19 °N, 81.25 °W | Updated 7 minutes ago

Overcast
Overcast
36.4 °F
Feels Like 36 °F
N
0.0
Wind Variable Wind from SSW
Gusts 0.0 mph

Today
High -- | Low -- °F
--% Chance of Precip.
Yesterday
High -- | Low -- °F
Precip. -- in
7:12 AM 5:11 PM
Waxing Crescent, 25% visible
Pressure 30.05 in
Visibility 10.0 miles
Clouds Mostly Cloudy 12000 ft
Windchill 36 °F
Dew Point 35 °F
Humidity 93%
Rainfall 1.18 in
Snow Depth Not available.
UV 0 out of 12
Pollen .30 out of 12
Air Quality Not available.
Flu Activity Not available.
METAR KUKF 270435Z AUTO 35004KT 10SM BKN120 02/02 A3005 RMK AO2

More Conditions Fewer Conditions

Pressure 30.05 in
Visibility 10.0 miles
Clouds Mostly Cloudy 12000 ft
Windchill 36 °F
Dew Point 35 °F
Humidity 93%
Rainfall 1.18 in
Snow Depth Not available.
UV 0 out of 12
Pollen .30 out of 12
Air Quality Not available.
Flu Activity Not available.
METAR KUKF 270435Z AUTO 35004KT 10SM BKN120 02/02 A3005 RMK AO2

More Conditions Fewer Conditions

10-Day Weather Forecast

Almanac

Astronomy

Nov. 26, 2014 Rise Set
Actual Time
Civil Twilight
Nautical Twilight
Astronomical Twilight
Moon
Length of Visible Light
Length of Day
Tomorrow will be .
, % of the Moon is Illuminated

Today's Extremes

State Highs State Lows

Community

WunderPhotos

Upload Photos

1,773,959 photos uploaded!

WunderBlogs® & News

Nearby

Air Quality

  Air Quality AQ Index Pollutant
Not available.

Snow Depth

Station Depth Elevation

Earthquake Activity

City Distance Mag. Time & Date
Minimum magnitude displayed is 2.5.

Coastal Water Temperatures

Place Temperature

Nearby Weather Stations